sensor_id;sensor_type;location;lat;lon;timestamp;pressure;altitude;pressure_sealevel;temperature;humidity
28911;BME280;16028;42.642;23.310;2023-06-22T00:01:12;94449.84;;;18.59;93.09
28911;BME280;16028;42.642;23.310;2023-06-22T00:03:39;94456.03;;;18.52;91.96
28911;BME280;16028;42.642;23.310;2023-06-22T00:06:06;94451.31;;;18.47;89.58
28911;BME280;16028;42.642;23.310;2023-06-22T00:08:33;94457.84;;;18.51;88.10
28911;BME280;16028;42.642;23.310;2023-06-22T00:11:00;94444.97;;;18.56;88.25
28911;BME280;16028;42.642;23.310;2023-06-22T00:13:26;94444.75;;;18.58;91.21
28911;BME280;16028;42.642;23.310;2023-06-22T00:15:55;94438.41;;;18.52;91.32
28911;BME280;16028;42.642;23.310;2023-06-22T00:18:21;94441.56;;;18.47;91.45
28911;BME280;16028;42.642;23.310;2023-06-22T00:20:53;94443.78;;;18.44;91.61
28911;BME280;16028;42.642;23.310;2023-06-22T00:23:23;94428.97;;;18.43;91.13
28911;BME280;16028;42.642;23.310;2023-06-22T00:25:50;94438.31;;;18.45;90.38
28911;BME280;16028;42.642;23.310;2023-06-22T00:28:17;94424.31;;;18.45;89.47
28911;BME280;16028;42.642;23.310;2023-06-22T00:30:44;94418.06;;;18.46;88.94
28911;BME280;16028;42.642;23.310;2023-06-22T00:33:12;94414.78;;;18.44;86.59
28911;BME280;16028;42.642;23.310;2023-06-22T00:35:39;94416.97;;;18.40;86.44
28911;BME280;16028;42.642;23.310;2023-06-22T00:38:06;94421.44;;;18.40;87.65
28911;BME280;16028;42.642;23.310;2023-06-22T00:40:33;94415.50;;;18.38;88.58
28911;BME280;16028;42.642;23.310;2023-06-22T00:43:00;94418.16;;;18.38;89.46
28911;BME280;16028;42.642;23.310;2023-06-22T00:45:27;94420.00;;;18.37;90.30
28911;BME280;16028;42.642;23.310;2023-06-22T00:47:56;94407.34;;;18.33;89.55
28911;BME280;16028;42.642;23.310;2023-06-22T00:50:26;94416.81;;;18.27;91.43
28911;BME280;16028;42.642;23.310;2023-06-22T00:52:56;94420.00;;;18.23;92.52
28911;BME280;16028;42.642;23.310;2023-06-22T00:55:24;94417.34;;;18.23;93.31
28911;BME280;16028;42.642;23.310;2023-06-22T00:57:51;94416.91;;;18.19;94.78
28911;BME280;16028;42.642;23.310;2023-06-22T01:00:21;94412.22;;;18.15;94.46
28911;BME280;16028;42.642;23.310;2023-06-22T01:02:50;94412.56;;;18.12;94.77
28911;BME280;16028;42.642;23.310;2023-06-22T01:05:18;94425.28;;;18.08;95.12
28911;BME280;16028;42.642;23.310;2023-06-22T01:07:55;94434.00;;;18.09;95.79
28911;BME280;16028;42.642;23.310;2023-06-22T01:10:30;94437.19;;;18.04;95.61
28911;BME280;16028;42.642;23.310;2023-06-22T01:13:02;94425.94;;;17.95;96.36
28911;BME280;16028;42.642;23.310;2023-06-22T01:15:33;94431.28;;;17.87;96.36
28911;BME280;16028;42.642;23.310;2023-06-22T01:18:04;94425.75;;;17.82;95.93
28911;BME280;16028;42.642;23.310;2023-06-22T01:20:34;94428.75;;;17.79;96.65
28911;BME280;16028;42.642;23.310;2023-06-22T01:23:10;94433.44;;;17.84;96.56
28911;BME280;16028;42.642;23.310;2023-06-22T01:25:45;94429.00;;;17.84;96.13
28911;BME280;16028;42.642;23.310;2023-06-22T01:28:23;94429.47;;;17.88;97.30
28911;BME280;16028;42.642;23.310;2023-06-22T01:30:53;94428.38;;;17.82;97.06
28911;BME280;16028;42.642;23.310;2023-06-22T01:33:29;94432.66;;;17.83;97.87
28911;BME280;16028;42.642;23.310;2023-06-22T01:35:58;94435.91;;;17.85;98.62
28911;BME280;16028;42.642;23.310;2023-06-22T01:38:27;94435.53;;;17.88;99.30
28911;BME280;16028;42.642;23.310;2023-06-22T01:40:55;94431.91;;;17.75;99.38
28911;BME280;16028;42.642;23.310;2023-06-22T01:43:24;94438.53;;;17.71;99.45
28911;BME280;16028;42.642;23.310;2023-06-22T01:45:54;94448.34;;;17.77;100.00
28911;BME280;16028;42.642;23.310;2023-06-22T01:48:22;94439.88;;;17.81;99.05
28911;BME280;16028;42.642;23.310;2023-06-22T01:50:51;94443.72;;;17.79;99.64
28911;BME280;16028;42.642;23.310;2023-06-22T01:53:20;94442.53;;;17.67;99.65
28911;BME280;16028;42.642;23.310;2023-06-22T01:55:47;94449.84;;;17.57;97.01
28911;BME280;16028;42.642;23.310;2023-06-22T01:58:14;94452.94;;;17.60;98.49
28911;BME280;16028;42.642;23.310;2023-06-22T02:00:50;94442.06;;;17.63;98.38
28911;BME280;16028;42.642;23.310;2023-06-22T02:03:23;94448.16;;;17.64;99.77
28911;BME280;16028;42.642;23.310;2023-06-22T02:05:56;94457.53;;;17.58;100.00
28911;BME280;16028;42.642;23.310;2023-06-22T02:08:28;94454.00;;;17.51;98.30
28911;BME280;16028;42.642;23.310;2023-06-22T02:10:56;94454.81;;;17.52;100.00
28911;BME280;16028;42.642;23.310;2023-06-22T02:13:24;94464.16;;;17.54;99.20
28911;BME280;16028;42.642;23.310;2023-06-22T02:15:51;94459.88;;;17.53;100.00
28911;BME280;16028;42.642;23.310;2023-06-22T02:18:20;94447.72;;;17.52;100.00
28911;BME280;16028;42.642;23.310;2023-06-22T02:20:47;94441.66;;;17.52;100.00
28911;BME280;16028;42.642;23.310;2023-06-22T02:23:14;94445.44;;;17.49;100.00
28911;BME280;16028;42.642;23.310;2023-06-22T02:25:41;94448.06;;;17.49;100.00
28911;BME280;16028;42.642;23.310;2023-06-22T02:28:09;94445.44;;;17.49;100.00
28911;BME280;16028;42.642;23.310;2023-06-22T02:30:39;94446.09;;;17.51;100.00
28911;BME280;16028;42.642;23.310;2023-06-22T02:33:05;94442.00;;;17.48;100.00
28911;BME280;16028;42.642;23.310;2023-06-22T02:35:34;94443.38;;;17.44;100.00
28911;BME280;16028;42.642;23.310;2023-06-22T02:38:02;94440.06;;;17.42;100.00
28911;BME280;16028;42.642;23.310;2023-06-22T02:40:30;94439.09;;;17.43;100.00
28911;BME280;16028;42.642;23.310;2023-06-22T02:42:58;94446.16;;;17.43;100.00
28911;BME280;16028;42.642;23.310;2023-06-22T02:45:27;94446.50;;;17.40;100.00
28911;BME280;16028;42.642;23.310;2023-06-22T02:47:55;94439.63;;;17.39;100.00
28911;BME280;16028;42.642;23.310;2023-06-22T02:50:22;94442.25;;;17.39;100.00
28911;BME280;16028;42.642;23.310;2023-06-22T02:52:50;94448.50;;;17.38;100.00
28911;BME280;16028;42.642;23.310;2023-06-22T02:55:17;94449.69;;;17.35;100.00
28911;BME280;16028;42.642;23.310;2023-06-22T02:57:44;94451.16;;;17.38;100.00
28911;BME280;16028;42.642;23.310;2023-06-22T03:00:13;94452.59;;;17.40;100.00
28911;BME280;16028;42.642;23.310;2023-06-22T03:02:43;94452.13;;;17.37;100.00
28911;BME280;16028;42.642;23.310;2023-06-22T03:05:10;94451.03;;;17.31;100.00
28911;BME280;16028;42.642;23.310;2023-06-22T03:07:39;94440.53;;;17.31;100.00
28911;BME280;16028;42.642;23.310;2023-06-22T03:10:08;94445.22;;;17.36;100.00
28911;BME280;16028;42.642;23.310;2023-06-22T03:12:36;94447.34;;;17.40;100.00
28911;BME280;16028;42.642;23.310;2023-06-22T03:15:04;94460.75;;;17.45;100.00
28911;BME280;16028;42.642;23.310;2023-06-22T03:17:31;94458.59;;;17.49;100.00
28911;BME280;16028;42.642;23.310;2023-06-22T03:19:57;94468.13;;;17.50;100.00
28911;BME280;16028;42.642;23.310;2023-06-22T03:22:24;94468.59;;;17.54;100.00
28911;BME280;16028;42.642;23.310;2023-06-22T03:24:51;94482.06;;;17.59;100.00
28911;BME280;16028;42.642;23.310;2023-06-22T03:27:19;94477.81;;;17.58;100.00
28911;BME280;16028;42.642;23.310;2023-06-22T03:29:46;94479.63;;;17.57;100.00
28911;BME280;16028;42.642;23.310;2023-06-22T03:32:13;94493.75;;;17.56;100.00
28911;BME280;16028;42.642;23.310;2023-06-22T03:34:40;94483.41;;;17.55;100.00
28911;BME280;16028;42.642;23.310;2023-06-22T03:37:12;94486.69;;;17.57;100.00
28911;BME280;16028;42.642;23.310;2023-06-22T03:39:40;94485.34;;;17.61;100.00
28911;BME280;16028;42.642;23.310;2023-06-22T03:42:07;94488.06;;;17.67;100.00
28911;BME280;16028;42.642;23.310;2023-06-22T03:44:35;94489.34;;;17.71;100.00
28911;BME280;16028;42.642;23.310;2023-06-22T03:47:03;94489.69;;;17.68;100.00
28911;BME280;16028;42.642;23.310;2023-06-22T03:49:32;94495.63;;;17.70;100.00
28911;BME280;16028;42.642;23.310;2023-06-22T03:52:00;94497.69;;;17.75;100.00
28911;BME280;16028;42.642;23.310;2023-06-22T03:54:28;94500.88;;;17.70;100.00
28911;BME280;16028;42.642;23.310;2023-06-22T03:56:55;94512.13;;;17.64;100.00
28911;BME280;16028;42.642;23.310;2023-06-22T03:59:22;94507.75;;;17.71;100.00
28911;BME280;16028;42.642;23.310;2023-06-22T04:01:51;94503.41;;;17.78;100.00
28911;BME280;16028;42.642;23.310;2023-06-22T04:04:18;94499.06;;;17.85;100.00
28911;BME280;16028;42.642;23.310;2023-06-22T04:06:45;94511.53;;;17.91;100.00
28911;BME280;16028;42.642;23.310;2023-06-22T04:09:12;94511.72;;;17.90;100.00
28911;BME280;16028;42.642;23.310;2023-06-22T04:11:38;94511.97;;;17.95;100.00
28911;BME280;16028;42.642;23.310;2023-06-22T04:14:05;94503.81;;;18.05;100.00
28911;BME280;16028;42.642;23.310;2023-06-22T04:16:32;94503.91;;;18.11;100.00
28911;BME280;16028;42.642;23.310;2023-06-22T04:19:00;94488.56;;;18.15;100.00
28911;BME280;16028;42.642;23.310;2023-06-22T04:21:27;94483.56;;;18.20;100.00
28911;BME280;16028;42.642;23.310;2023-06-22T04:23:54;94487.56;;;18.30;100.00
28911;BME280;16028;42.642;23.310;2023-06-22T04:26:21;94479.09;;;18.35;100.00
28911;BME280;16028;42.642;23.310;2023-06-22T04:28:48;94473.13;;;18.41;100.00
28911;BME280;16028;42.642;23.310;2023-06-22T04:31:17;94471.13;;;18.43;100.00
28911;BME280;16028;42.642;23.310;2023-06-22T04:33:44;94468.22;;;18.53;100.00
28911;BME280;16028;42.642;23.310;2023-06-22T04:36:12;94473.16;;;18.77;100.00
28911;BME280;16028;42.642;23.310;2023-06-22T04:38:40;94470.31;;;19.14;97.66
28911;BME280;16028;42.642;23.310;2023-06-22T04:41:07;94476.41;;;19.36;97.53
28911;BME280;16028;42.642;23.310;2023-06-22T04:43:39;94472.09;;;19.49;98.35
28911;BME280;16028;42.642;23.310;2023-06-22T04:46:06;94475.41;;;19.58;97.21
28911;BME280;16028;42.642;23.310;2023-06-22T04:48:33;94480.94;;;19.63;96.00
28911;BME280;16028;42.642;23.310;2023-06-22T04:50:59;94481.91;;;19.56;94.81
28911;BME280;16028;42.642;23.310;2023-06-22T04:53:30;94480.81;;;19.50;95.73
28911;BME280;16028;42.642;23.310;2023-06-22T04:55:57;94482.41;;;19.44;96.89
28911;BME280;16028;42.642;23.310;2023-06-22T04:58:24;94494.22;;;19.48;97.05
28911;BME280;16028;42.642;23.310;2023-06-22T05:00:52;94495.66;;;19.51;96.84
28911;BME280;16028;42.642;23.310;2023-06-22T05:03:22;94490.41;;;20.06;97.88
28911;BME280;16028;42.642;23.310;2023-06-22T05:05:51;94499.03;;;20.56;92.96
28911;BME280;16028;42.642;23.310;2023-06-22T05:08:19;94498.75;;;20.38;92.58
28911;BME280;16028;42.642;23.310;2023-06-22T05:10:47;94497.28;;;20.29;92.84
28911;BME280;16028;42.642;23.310;2023-06-22T05:13:13;94492.81;;;20.36;90.82
28911;BME280;16028;42.642;23.310;2023-06-22T05:15:40;94493.53;;;20.51;91.12
28911;BME280;16028;42.642;23.310;2023-06-22T05:18:07;94497.19;;;20.50;89.95
28911;BME280;16028;42.642;23.310;2023-06-22T05:20:34;94490.88;;;20.98;88.01
28911;BME280;16028;42.642;23.310;2023-06-22T05:23:01;94497.25;;;21.10;86.30
28911;BME280;16028;42.642;23.310;2023-06-22T05:25:28;94495.16;;;20.99;84.31
28911;BME280;16028;42.642;23.310;2023-06-22T05:27:59;94497.56;;;20.94;85.55
28911;BME280;16028;42.642;23.310;2023-06-22T05:30:27;94498.69;;;21.26;85.52
28911;BME280;16028;42.642;23.310;2023-06-22T05:32:53;94494.03;;;21.28;85.48
28911;BME280;16028;42.642;23.310;2023-06-22T05:35:20;94504.63;;;21.41;86.24
28911;BME280;16028;42.642;23.310;2023-06-22T05:37:47;94511.81;;;22.06;82.09
28911;BME280;16028;42.642;23.310;2023-06-22T05:40:14;94512.38;;;22.41;79.62
28911;BME280;16028;42.642;23.310;2023-06-22T05:42:41;94511.16;;;22.31;80.26
28911;BME280;16028;42.642;23.310;2023-06-22T05:45:09;94527.47;;;22.41;78.95
28911;BME280;16028;42.642;23.310;2023-06-22T05:47:36;94529.09;;;22.55;79.73
28911;BME280;16028;42.642;23.310;2023-06-22T05:50:04;94532.91;;;22.79;74.90
28911;BME280;16028;42.642;23.310;2023-06-22T05:52:33;94533.13;;;22.84;76.95
28911;BME280;16028;42.642;23.310;2023-06-22T05:55:01;94538.38;;;22.97;74.48
28911;BME280;16028;42.642;23.310;2023-06-22T05:57:28;94529.84;;;22.75;75.87
28911;BME280;16028;42.642;23.310;2023-06-22T05:59:54;94531.31;;;22.64;76.53
28911;BME280;16028;42.642;23.310;2023-06-22T06:02:23;94531.78;;;22.02;75.34
28911;BME280;16028;42.642;23.310;2023-06-22T06:04:50;94532.78;;;22.28;77.17
28911;BME280;16028;42.642;23.310;2023-06-22T06:07:18;94528.47;;;22.46;79.60
28911;BME280;16028;42.642;23.310;2023-06-22T06:09:46;94522.59;;;22.18;77.03
28911;BME280;16028;42.642;23.310;2023-06-22T06:12:13;94517.72;;;22.15;78.08
28911;BME280;16028;42.642;23.310;2023-06-22T06:14:40;94516.28;;;22.12;80.13
28911;BME280;16028;42.642;23.310;2023-06-22T06:17:06;94515.69;;;21.97;82.79
28911;BME280;16028;42.642;23.310;2023-06-22T06:19:35;94504.88;;;21.73;81.21
28911;BME280;16028;42.642;23.310;2023-06-22T06:22:01;94505.06;;;21.84;81.85
28911;BME280;16028;42.642;23.310;2023-06-22T06:24:28;94505.44;;;22.34;84.21
28911;BME280;16028;42.642;23.310;2023-06-22T06:26:55;94502.72;;;23.17;79.05
28911;BME280;16028;42.642;23.310;2023-06-22T06:29:22;94507.03;;;23.56;76.09
28911;BME280;16028;42.642;23.310;2023-06-22T06:31:51;94502.97;;;24.03;71.85
28911;BME280;16028;42.642;23.310;2023-06-22T06:34:17;94511.59;;;24.30;70.27
28911;BME280;16028;42.642;23.310;2023-06-22T06:36:48;94518.19;;;24.46;69.31
28911;BME280;16028;42.642;23.310;2023-06-22T06:39:16;94509.81;;;24.60;69.08
28911;BME280;16028;42.642;23.310;2023-06-22T06:41:43;94507.13;;;24.24;70.22
28911;BME280;16028;42.642;23.310;2023-06-22T06:44:10;94502.34;;;23.83;71.39
28911;BME280;16028;42.642;23.310;2023-06-22T06:46:36;94501.75;;;24.06;72.97
28911;BME280;16028;42.642;23.310;2023-06-22T06:49:04;94495.44;;;24.25;73.54
28911;BME280;16028;42.642;23.310;2023-06-22T06:51:30;94492.84;;;23.94;70.54
28911;BME280;16028;42.642;23.310;2023-06-22T06:53:59;94498.00;;;23.64;73.30
28911;BME280;16028;42.642;23.310;2023-06-22T06:56:25;94479.06;;;23.79;78.01
28911;BME280;16028;42.642;23.310;2023-06-22T06:58:52;94489.72;;;24.28;73.59
28911;BME280;16028;42.642;23.310;2023-06-22T07:01:19;94484.84;;;24.80;73.57
28911;BME280;16028;42.642;23.310;2023-06-22T07:03:46;94485.06;;;25.44;69.31
28911;BME280;16028;42.642;23.310;2023-06-22T07:06:13;94478.19;;;25.66;67.45
28911;BME280;16028;42.642;23.310;2023-06-22T07:08:41;94480.38;;;26.22;65.04
28911;BME280;16028;42.642;23.310;2023-06-22T07:11:10;94478.41;;;26.18;64.81
28911;BME280;16028;42.642;23.310;2023-06-22T07:13:36;94486.41;;;26.64;62.34
28911;BME280;16028;42.642;23.310;2023-06-22T07:16:04;94481.28;;;26.86;65.48
28911;BME280;16028;42.642;23.310;2023-06-22T07:18:30;94490.75;;;26.94;63.88
28911;BME280;16028;42.642;23.310;2023-06-22T07:20:57;94486.75;;;27.19;61.80
28911;BME280;16028;42.642;23.310;2023-06-22T07:23:24;94491.53;;;27.17;60.69
28911;BME280;16028;42.642;23.310;2023-06-22T07:25:51;94485.31;;;27.28;60.16
28911;BME280;16028;42.642;23.310;2023-06-22T07:28:19;94491.69;;;26.99;58.67
28911;BME280;16028;42.642;23.310;2023-06-22T07:30:46;94487.53;;;26.80;59.90
28911;BME280;16028;42.642;23.310;2023-06-22T07:33:13;94483.81;;;26.69;61.42
28911;BME280;16028;42.642;23.310;2023-06-22T07:35:42;94487.44;;;26.63;59.78
28911;BME280;16028;42.642;23.310;2023-06-22T07:38:09;94494.66;;;26.51;61.50
28911;BME280;16028;42.642;23.310;2023-06-22T07:40:36;94490.47;;;26.44;62.88
28911;BME280;16028;42.642;23.310;2023-06-22T07:43:03;94492.69;;;26.35;59.83
28911;BME280;16028;42.642;23.310;2023-06-22T07:45:31;94494.75;;;26.21;60.93
28911;BME280;16028;42.642;23.310;2023-06-22T07:48:00;94498.31;;;26.15;58.85
28911;BME280;16028;42.642;23.310;2023-06-22T07:50:27;94499.47;;;26.08;61.53
28911;BME280;16028;42.642;23.310;2023-06-22T07:52:53;94499.00;;;25.99;60.88
28911;BME280;16028;42.642;23.310;2023-06-22T07:55:20;94495.53;;;25.87;64.39
28911;BME280;16028;42.642;23.310;2023-06-22T07:57:48;94492.81;;;25.75;66.79
28911;BME280;16028;42.642;23.310;2023-06-22T08:00:17;94490.28;;;26.04;64.29
28911;BME280;16028;42.642;23.310;2023-06-22T08:02:46;94488.03;;;26.19;64.23
28911;BME280;16028;42.642;23.310;2023-06-22T08:05:14;94491.56;;;25.78;65.77
28911;BME280;16028;42.642;23.310;2023-06-22T08:07:41;94483.56;;;26.01;63.24
28911;BME280;16028;42.642;23.310;2023-06-22T08:10:10;94479.09;;;25.60;63.75
28911;BME280;16028;42.642;23.310;2023-06-22T08:12:38;94479.59;;;25.39;64.79
28911;BME280;16028;42.642;23.310;2023-06-22T08:15:06;94478.69;;;25.45;65.64
28911;BME280;16028;42.642;23.310;2023-06-22T08:17:36;94474.47;;;25.26;63.76
28911;BME280;16028;42.642;23.310;2023-06-22T08:20:05;94477.75;;;25.10;63.63
28911;BME280;16028;42.642;23.310;2023-06-22T08:22:36;94470.28;;;25.60;63.69
28911;BME280;16028;42.642;23.310;2023-06-22T08:25:04;94474.03;;;25.82;64.27
28911;BME280;16028;42.642;23.310;2023-06-22T08:27:31;94471.94;;;25.72;63.43
28911;BME280;16028;42.642;23.310;2023-06-22T08:29:58;94470.25;;;26.01;60.28
28911;BME280;16028;42.642;23.310;2023-06-22T08:32:25;94463.63;;;26.04;59.11
28911;BME280;16028;42.642;23.310;2023-06-22T08:34:52;94463.53;;;26.10;60.81
28911;BME280;16028;42.642;23.310;2023-06-22T08:37:21;94464.16;;;26.36;61.57
28911;BME280;16028;42.642;23.310;2023-06-22T08:39:55;94465.16;;;26.46;61.62
28911;BME280;16028;42.642;23.310;2023-06-22T08:42:22;94460.75;;;26.52;60.50
28911;BME280;16028;42.642;23.310;2023-06-22T08:44:51;94468.75;;;26.52;62.34
28911;BME280;16028;42.642;23.310;2023-06-22T08:47:18;94477.22;;;26.49;63.53
28911;BME280;16028;42.642;23.310;2023-06-22T08:49:44;94463.81;;;26.32;64.66
28911;BME280;16028;42.642;23.310;2023-06-22T08:52:11;94470.03;;;26.14;63.86
28911;BME280;16028;42.642;23.310;2023-06-22T08:54:39;94465.59;;;25.85;64.46
28911;BME280;16028;42.642;23.310;2023-06-22T08:57:06;94468.03;;;25.75;63.81
28911;BME280;16028;42.642;23.310;2023-06-22T08:59:33;94464.03;;;25.54;64.97
28911;BME280;16028;42.642;23.310;2023-06-22T09:02:00;94465.41;;;25.57;63.98
28911;BME280;16028;42.642;23.310;2023-06-22T09:04:26;94462.22;;;25.37;62.78
28911;BME280;16028;42.642;23.310;2023-06-22T09:06:53;94456.75;;;25.32;62.46
28911;BME280;16028;42.642;23.310;2023-06-22T09:09:21;94451.16;;;25.21;61.65
28911;BME280;16028;42.642;23.310;2023-06-22T09:11:49;94453.31;;;25.43;62.88
28911;BME280;16028;42.642;23.310;2023-06-22T09:14:16;94457.72;;;25.90;60.07
28911;BME280;16028;42.642;23.310;2023-06-22T09:16:43;94461.09;;;25.97;56.77
28911;BME280;16028;42.642;23.310;2023-06-22T09:19:10;94455.84;;;25.79;61.38
28911;BME280;16028;42.642;23.310;2023-06-22T09:21:38;94452.41;;;25.90;60.90
28911;BME280;16028;42.642;23.310;2023-06-22T09:24:05;94455.50;;;25.75;61.25
28911;BME280;16028;42.642;23.310;2023-06-22T09:26:32;94456.66;;;25.79;62.04
28911;BME280;16028;42.642;23.310;2023-06-22T09:29:00;94466.69;;;26.19;57.40
28911;BME280;16028;42.642;23.310;2023-06-22T09:31:27;94466.94;;;26.29;55.90
28911;BME280;16028;42.642;23.310;2023-06-22T09:33:54;94469.94;;;26.33;56.11
28911;BME280;16028;42.642;23.310;2023-06-22T09:36:21;94458.94;;;26.29;58.20
28911;BME280;16028;42.642;23.310;2023-06-22T09:38:48;94465.66;;;26.32;56.22
28911;BME280;16028;42.642;23.310;2023-06-22T09:41:24;94466.81;;;26.36;59.01
28911;BME280;16028;42.642;23.310;2023-06-22T09:43:50;94478.38;;;26.53;53.52
28911;BME280;16028;42.642;23.310;2023-06-22T09:46:19;94476.50;;;26.65;52.55
28911;BME280;16028;42.642;23.310;2023-06-22T09:48:47;94470.97;;;26.55;53.15
28911;BME280;16028;42.642;23.310;2023-06-22T09:51:14;94466.66;;;26.65;52.71
28911;BME280;16028;42.642;23.310;2023-06-22T09:53:40;94454.16;;;26.43;55.17
28911;BME280;16028;42.642;23.310;2023-06-22T09:56:07;94472.44;;;26.74;52.18
28911;BME280;16028;42.642;23.310;2023-06-22T09:58:40;94450.50;;;26.83;51.25
28911;BME280;16028;42.642;23.310;2023-06-22T10:01:06;94462.47;;;26.69;50.74
28911;BME280;16028;42.642;23.310;2023-06-22T10:03:34;94437.63;;;26.69;53.71
28911;BME280;16028;42.642;23.310;2023-06-22T10:06:01;94442.75;;;26.70;55.21
28911;BME280;16028;42.642;23.310;2023-06-22T10:08:28;94454.56;;;26.86;51.94
28911;BME280;16028;42.642;23.310;2023-06-22T10:10:55;94450.28;;;26.62;53.22
28911;BME280;16028;42.642;23.310;2023-06-22T10:13:22;94441.88;;;26.42;53.01
28911;BME280;16028;42.642;23.310;2023-06-22T10:15:49;94437.13;;;26.32;54.43
28911;BME280;16028;42.642;23.310;2023-06-22T10:18:17;94439.06;;;26.37;53.66
28911;BME280;16028;42.642;23.310;2023-06-22T10:20:47;94438.72;;;26.33;54.10
28911;BME280;16028;42.642;23.310;2023-06-22T10:23:15;94433.38;;;26.33;52.87
28911;BME280;16028;42.642;23.310;2023-06-22T10:25:42;94435.84;;;26.35;52.43
28911;BME280;16028;42.642;23.310;2023-06-22T10:28:09;94432.44;;;26.39;52.51
28911;BME280;16028;42.642;23.310;2023-06-22T10:30:36;94433.44;;;26.61;52.98
28911;BME280;16028;42.642;23.310;2023-06-22T10:33:03;94440.00;;;26.54;50.84
28911;BME280;16028;42.642;23.310;2023-06-22T10:35:29;94451.50;;;27.06;47.87
28911;BME280;16028;42.642;23.310;2023-06-22T10:37:58;94428.72;;;27.03;50.46
28911;BME280;16028;42.642;23.310;2023-06-22T10:40:25;94428.06;;;27.24;48.94
28911;BME280;16028;42.642;23.310;2023-06-22T10:42:52;94417.56;;;27.34;49.93
28911;BME280;16028;42.642;23.310;2023-06-22T10:45:18;94414.41;;;27.09;50.96
28911;BME280;16028;42.642;23.310;2023-06-22T10:47:45;94415.84;;;27.00;50.96
28911;BME280;16028;42.642;23.310;2023-06-22T10:50:12;94417.81;;;27.05;51.45
28911;BME280;16028;42.642;23.310;2023-06-22T10:52:40;94411.44;;;27.22;53.96
28911;BME280;16028;42.642;23.310;2023-06-22T10:55:09;94409.59;;;27.23;54.42
28911;BME280;16028;42.642;23.310;2023-06-22T10:57:35;94412.13;;;27.29;52.84
28911;BME280;16028;42.642;23.310;2023-06-22T11:00:05;94405.31;;;27.50;53.58
28911;BME280;16028;42.642;23.310;2023-06-22T11:02:33;94416.88;;;27.56;49.74
28911;BME280;16028;42.642;23.310;2023-06-22T11:05:00;94410.06;;;27.65;50.07
28911;BME280;16028;42.642;23.310;2023-06-22T11:07:27;94405.38;;;27.72;51.70
28911;BME280;16028;42.642;23.310;2023-06-22T11:09:54;94395.19;;;27.85;54.71
28911;BME280;16028;42.642;23.310;2023-06-22T11:12:22;94430.59;;;28.09;48.08
28911;BME280;16028;42.642;23.310;2023-06-22T11:14:49;94426.53;;;28.23;46.62
28911;BME280;16028;42.642;23.310;2023-06-22T11:17:17;94427.38;;;28.46;45.02
28911;BME280;16028;42.642;23.310;2023-06-22T11:19:44;94393.78;;;28.16;52.14
28911;BME280;16028;42.642;23.310;2023-06-22T11:22:10;94383.38;;;28.03;53.73
28911;BME280;16028;42.642;23.310;2023-06-22T11:24:37;94398.16;;;28.22;48.73
28911;BME280;16028;42.642;23.310;2023-06-22T11:27:04;94398.84;;;28.34;47.61
28911;BME280;16028;42.642;23.310;2023-06-22T11:29:33;94406.06;;;28.34;47.34
28911;BME280;16028;42.642;23.310;2023-06-22T11:31:59;94426.06;;;28.48;45.33
28911;BME280;16028;42.642;23.310;2023-06-22T11:34:26;94398.53;;;28.53;48.88
28911;BME280;16028;42.642;23.310;2023-06-22T11:36:53;94414.69;;;28.58;46.33
28911;BME280;16028;42.642;23.310;2023-06-22T11:39:20;94392.09;;;28.49;48.54
28911;BME280;16028;42.642;23.310;2023-06-22T11:41:47;94398.84;;;28.34;48.20
28911;BME280;16028;42.642;23.310;2023-06-22T11:44:14;94387.22;;;28.24;48.19
28911;BME280;16028;42.642;23.310;2023-06-22T11:46:42;94392.25;;;28.20;47.59
28911;BME280;16028;42.642;23.310;2023-06-22T11:49:08;94396.34;;;28.50;47.14
28911;BME280;16028;42.642;23.310;2023-06-22T11:51:35;94377.34;;;28.68;47.50
28911;BME280;16028;42.642;23.310;2023-06-22T11:54:02;94387.81;;;28.53;45.76
28911;BME280;16028;42.642;23.310;2023-06-22T11:56:29;94376.56;;;28.29;46.11
28911;BME280;16028;42.642;23.310;2023-06-22T11:58:56;94362.47;;;28.17;49.79
28911;BME280;16028;42.642;23.310;2023-06-22T12:01:23;94364.66;;;28.03;50.71
28911;BME280;16028;42.642;23.310;2023-06-22T12:03:51;94377.91;;;27.76;48.32
28911;BME280;16028;42.642;23.310;2023-06-22T12:06:18;94372.66;;;27.65;49.71
28911;BME280;16028;42.642;23.310;2023-06-22T12:08:47;94372.25;;;27.56;50.27
28911;BME280;16028;42.642;23.310;2023-06-22T12:11:14;94367.91;;;27.39;51.40
28911;BME280;16028;42.642;23.310;2023-06-22T12:13:41;94367.72;;;27.28;52.29
28911;BME280;16028;42.642;23.310;2023-06-22T12:16:08;94383.50;;;27.13;52.91
28911;BME280;16028;42.642;23.310;2023-06-22T12:18:34;94385.75;;;27.05;52.18
28911;BME280;16028;42.642;23.310;2023-06-22T12:21:02;94382.66;;;26.96;54.13
28911;BME280;16028;42.642;23.310;2023-06-22T12:23:29;94383.41;;;26.80;53.29
28911;BME280;16028;42.642;23.310;2023-06-22T12:25:56;94389.66;;;26.74;55.82
28911;BME280;16028;42.642;23.310;2023-06-22T12:28:24;94378.69;;;26.59;57.89
28911;BME280;16028;42.642;23.310;2023-06-22T12:30:51;94381.06;;;26.44;60.46
28911;BME280;16028;42.642;23.310;2023-06-22T12:33:21;94379.22;;;26.33;60.91
28911;BME280;16028;42.642;23.310;2023-06-22T12:35:48;94394.91;;;26.17;61.89
28911;BME280;16028;42.642;23.310;2023-06-22T12:38:17;94410.88;;;26.06;63.53
28911;BME280;16028;42.642;23.310;2023-06-22T12:40:43;94411.44;;;26.08;63.76
28911;BME280;16028;42.642;23.310;2023-06-22T12:43:12;94402.88;;;25.71;66.97
28911;BME280;16028;42.642;23.310;2023-06-22T12:45:39;94395.94;;;25.28;68.06
28911;BME280;16028;42.642;23.310;2023-06-22T12:48:06;94405.81;;;24.98;69.46
28911;BME280;16028;42.642;23.310;2023-06-22T12:50:33;94400.31;;;24.82;70.73